createdAt,value
2016-08-22T00:00:47.413Z,961.24
2016-08-22T00:01:47.432Z,961.24
2016-08-22T00:02:47.405Z,961.24
2016-08-22T00:03:47.406Z,961.27
2016-08-22T00:04:47.401Z,961.25
2016-08-22T00:05:47.390Z,961.26
2016-08-22T00:06:47.382Z,961.21
2016-08-22T00:07:47.374Z,961.2
2016-08-22T00:08:47.400Z,961.17
2016-08-22T00:09:47.528Z,961.21
2016-08-22T00:10:47.399Z,961.25
2016-08-22T00:11:47.359Z,961.27
2016-08-22T00:12:47.346Z,961.24
2016-08-22T00:13:47.341Z,961.22
2016-08-22T00:14:47.337Z,961.29
2016-08-22T00:15:47.336Z,961.3
2016-08-22T00:16:47.326Z,961.26
2016-08-22T00:17:47.422Z,961.26
2016-08-22T00:18:47.381Z,961.23
2016-08-22T00:19:47.387Z,961.26
2016-08-22T00:20:47.310Z,961.28
2016-08-22T00:21:47.303Z,961.27
2016-08-22T00:22:47.291Z,961.29
2016-08-22T00:23:47.283Z,961.29
2016-08-22T00:24:47.278Z,961.33
2016-08-22T00:25:47.279Z,961.3
2016-08-22T00:26:47.274Z,961.3
2016-08-22T00:27:47.272Z,961.27
2016-08-22T00:28:47.293Z,961.31
2016-08-22T00:29:47.331Z,961.29
2016-08-22T00:30:47.268Z,961.28
2016-08-22T00:31:47.264Z,961.25
2016-08-22T00:32:47.240Z,961.25
2016-08-22T00:33:47.289Z,961.23
2016-08-22T00:34:47.228Z,961.28
2016-08-22T00:35:47.226Z,961.26
2016-08-22T00:36:47.224Z,961.23
2016-08-22T00:37:47.243Z,961.28
2016-08-22T00:38:47.204Z,961.28
2016-08-22T00:39:47.209Z,961.3
2016-08-22T00:40:47.212Z,961.3
2016-08-22T00:41:47.206Z,961.31
2016-08-22T00:42:47.188Z,961.28
2016-08-22T00:43:47.187Z,961.31
2016-08-22T00:44:47.174Z,961.3
2016-08-22T00:45:47.207Z,961.29
2016-08-22T00:46:47.180Z,961.34
2016-08-22T00:47:47.206Z,961.28
2016-08-22T00:48:47.236Z,961.35
2016-08-22T00:49:47.201Z,961.34
2016-08-22T00:50:47.178Z,961.38
2016-08-22T00:51:47.167Z,961.35
2016-08-22T00:52:47.139Z,961.34
2016-08-22T00:53:47.126Z,961.34
2016-08-22T00:54:47.119Z,961.34
2016-08-22T00:55:47.207Z,961.33
2016-08-22T00:56:47.114Z,961.36
2016-08-22T00:57:47.102Z,961.33
2016-08-22T00:58:47.101Z,961.33
2016-08-22T00:59:47.109Z,961.31
2016-08-22T01:00:47.105Z,961.3
2016-08-22T01:01:47.090Z,961.31
2016-08-22T01:02:47.079Z,961.3
2016-08-22T01:03:47.075Z,961.28
2016-08-22T01:04:47.074Z,961.31
2016-08-22T01:05:47.077Z,961.29
2016-08-22T01:06:47.061Z,961.28
2016-08-22T01:07:47.059Z,961.26
2016-08-22T01:08:47.044Z,961.27
2016-08-22T01:09:47.043Z,961.29
2016-08-22T01:10:47.038Z,961.26
2016-08-22T01:11:47.026Z,961.29
2016-08-22T01:12:47.023Z,961.35
2016-08-22T01:13:47.013Z,961.3
2016-08-22T01:14:47.059Z,961.35
2016-08-22T01:15:47.017Z,961.32
2016-08-22T01:16:47.027Z,961.33
2016-08-22T01:17:46.997Z,961.32
2016-08-22T01:18:47.013Z,961.31
2016-08-22T01:19:46.990Z,961.3
2016-08-22T01:20:46.985Z,961.34
2016-08-22T01:21:47.259Z,961.34
2016-08-22T01:22:46.993Z,961.38
2016-08-22T01:23:46.969Z,961.37
2016-08-22T01:24:46.969Z,961.34
2016-08-22T01:25:46.955Z,961.31
2016-08-22T01:26:46.959Z,961.32
2016-08-22T01:27:46.959Z,961.36
2016-08-22T01:28:46.941Z,961.38
2016-08-22T01:29:46.933Z,961.39
2016-08-22T01:30:46.930Z,961.38
2016-08-22T01:31:46.935Z,961.41
2016-08-22T01:32:46.929Z,961.42
2016-08-22T01:33:46.913Z,961.38
2016-08-22T01:34:46.910Z,961.39
2016-08-22T01:35:46.904Z,961.36
2016-08-22T01:36:46.898Z,961.41
2016-08-22T01:37:46.893Z,961.39
2016-08-22T01:38:46.992Z,961.4
2016-08-22T01:39:46.890Z,961.42
2016-08-22T01:40:46.888Z,961.4
2016-08-22T01:41:46.900Z,961.45
2016-08-22T01:42:46.869Z,961.44
2016-08-22T01:43:46.858Z,961.44
2016-08-22T01:44:46.853Z,961.46
2016-08-22T01:45:46.853Z,961.46
2016-08-22T01:46:46.841Z,961.43
2016-08-22T01:47:46.836Z,961.47
2016-08-22T01:48:46.837Z,961.41
2016-08-22T01:49:46.827Z,961.41
2016-08-22T01:50:46.821Z,961.41
2016-08-22T01:51:46.814Z,961.42
2016-08-22T01:52:46.836Z,961.43
2016-08-22T01:53:46.818Z,961.45
2016-08-22T01:54:46.812Z,961.43
2016-08-22T01:55:46.793Z,961.43
2016-08-22T01:56:46.789Z,961.44
2016-08-22T01:57:46.787Z,961.41
2016-08-22T01:58:46.776Z,961.42
2016-08-22T01:59:46.772Z,961.42
2016-08-22T02:00:46.767Z,961.41
2016-08-22T02:01:46.761Z,961.39
2016-08-22T02:02:46.772Z,961.41
2016-08-22T02:03:46.764Z,961.43
2016-08-22T02:04:46.763Z,961.45
2016-08-22T02:05:46.745Z,961.45
2016-08-22T02:06:46.734Z,961.45
2016-08-22T02:07:46.780Z,961.44
2016-08-22T02:08:46.743Z,961.45
2016-08-22T02:09:46.732Z,961.42
2016-08-22T02:10:46.731Z,961.48
2016-08-22T02:11:46.722Z,961.48
2016-08-22T02:12:46.726Z,961.47
2016-08-22T02:13:46.754Z,961.48
2016-08-22T02:14:46.711Z,961.48
2016-08-22T02:15:46.699Z,961.44
2016-08-22T02:16:46.702Z,961.44
2016-08-22T02:17:46.675Z,961.45
2016-08-22T02:18:46.672Z,961.45
2016-08-22T02:19:46.670Z,961.46
2016-08-22T02:20:46.702Z,961.45
2016-08-22T02:21:46.692Z,961.45
2016-08-22T02:22:46.721Z,961.48
2016-08-22T02:23:46.667Z,961.5
2016-08-22T02:24:46.648Z,961.47
2016-08-22T02:25:46.637Z,961.48
2016-08-22T02:26:46.627Z,961.51
2016-08-22T02:27:46.623Z,961.53
2016-08-22T02:28:46.621Z,961.53
2016-08-22T02:29:46.624Z,961.51
2016-08-22T02:30:46.614Z,961.5
2016-08-22T02:31:46.613Z,961.54
2016-08-22T02:32:46.608Z,961.58
2016-08-22T02:33:46.601Z,961.58
2016-08-22T02:34:46.589Z,961.6
2016-08-22T02:35:46.579Z,961.56
2016-08-22T02:36:46.582Z,961.57
2016-08-22T02:37:46.581Z,961.61
2016-08-22T02:38:46.567Z,961.63
2016-08-22T02:39:46.577Z,961.65
2016-08-22T02:40:46.565Z,961.66
2016-08-22T02:41:46.549Z,961.7
2016-08-22T02:42:46.549Z,961.73
2016-08-22T02:43:46.537Z,961.75
2016-08-22T02:44:46.535Z,961.77
2016-08-22T02:45:46.527Z,961.79
2016-08-22T02:46:46.533Z,961.78
2016-08-22T02:47:46.528Z,961.85
2016-08-22T02:48:46.513Z,961.83
2016-08-22T02:49:46.511Z,961.86
2016-08-22T02:50:46.500Z,961.85
2016-08-22T02:51:46.494Z,961.89
2016-08-22T02:52:46.498Z,961.9
2016-08-22T02:53:46.493Z,961.9
2016-08-22T02:54:46.487Z,961.92
2016-08-22T02:55:46.480Z,961.92
2016-08-22T02:56:46.475Z,961.89
2016-08-22T02:57:46.466Z,961.92
2016-08-22T02:58:46.477Z,961.94
2016-08-22T02:59:46.451Z,961.94
2016-08-22T03:00:46.448Z,961.94
2016-08-22T03:01:46.451Z,961.94
2016-08-22T03:02:46.435Z,961.97
2016-08-22T03:03:46.435Z,961.99
2016-08-22T03:04:46.422Z,961.98
2016-08-22T03:05:46.420Z,961.99
2016-08-22T03:06:46.434Z,962
2016-08-22T03:07:46.409Z,962
2016-08-22T03:08:46.403Z,961.99
2016-08-22T03:09:46.395Z,961.96
2016-08-22T03:10:46.389Z,962.03
2016-08-22T03:11:46.390Z,962
2016-08-22T03:12:46.381Z,962.01
2016-08-22T03:13:46.384Z,962.03
2016-08-22T03:14:46.375Z,962.08
2016-08-22T03:15:46.363Z,962.05
2016-08-22T03:16:46.361Z,962.07
2016-08-22T03:17:46.353Z,962.07
2016-08-22T03:18:46.351Z,962.09
2016-08-22T03:19:46.343Z,962.12
2016-08-22T03:20:46.338Z,962.11
2016-08-22T03:21:46.330Z,962.12
2016-08-22T03:22:46.345Z,962.14
2016-08-22T03:23:46.338Z,962.14
2016-08-22T03:24:46.322Z,962.13
2016-08-22T03:25:46.328Z,962.16
2016-08-22T03:26:46.304Z,962.16
2016-08-22T03:27:46.305Z,962.18
2016-08-22T03:28:46.299Z,962.2
2016-08-22T03:29:46.290Z,962.21
2016-08-22T03:30:46.286Z,962.21
2016-08-22T03:31:46.293Z,962.21
2016-08-22T03:32:46.366Z,962.23
2016-08-22T03:33:46.277Z,962.22
2016-08-22T03:34:46.287Z,962.29
2016-08-22T03:35:46.269Z,962.29
2016-08-22T03:36:46.259Z,962.3
2016-08-22T03:37:46.249Z,962.24
2016-08-22T03:38:46.245Z,962.25
2016-08-22T03:39:46.237Z,962.25
2016-08-22T03:40:46.231Z,962.33
2016-08-22T03:41:46.226Z,962.28
2016-08-22T03:42:46.226Z,962.28
2016-08-22T03:43:46.218Z,962.28
2016-08-22T03:44:46.217Z,962.3
2016-08-22T03:45:46.219Z,962.28
2016-08-22T03:46:46.213Z,962.32
2016-08-22T03:47:46.203Z,962.33
2016-08-22T03:48:46.194Z,962.32
2016-08-22T03:49:46.187Z,962.35
2016-08-22T03:50:46.183Z,962.33
2016-08-22T03:51:46.172Z,962.31
2016-08-22T03:52:46.175Z,962.3
2016-08-22T03:53:46.180Z,962.31
2016-08-22T03:54:46.156Z,962.3
2016-08-22T03:55:46.161Z,962.36
2016-08-22T03:56:46.161Z,962.35
2016-08-22T03:57:46.153Z,962.37
2016-08-22T03:58:46.151Z,962.4
2016-08-22T03:59:46.145Z,962.4
2016-08-22T04:00:46.131Z,962.38
2016-08-22T04:01:46.119Z,962.39
2016-08-22T04:02:46.115Z,962.44
2016-08-22T04:03:46.108Z,962.45
2016-08-22T04:04:46.116Z,962.41
2016-08-22T04:05:46.118Z,962.42
2016-08-22T04:06:46.114Z,962.42
2016-08-22T04:07:46.094Z,962.47
2016-08-22T04:08:46.093Z,962.5
2016-08-22T04:09:46.096Z,962.51
2016-08-22T04:10:46.084Z,962.55
2016-08-22T04:11:46.069Z,962.56
2016-08-22T04:12:46.061Z,962.56
2016-08-22T04:13:46.061Z,962.57
2016-08-22T04:14:46.053Z,962.56
2016-08-22T04:15:46.048Z,962.66
2016-08-22T04:16:46.247Z,962.7
2016-08-22T04:17:46.041Z,962.66
2016-08-22T04:18:46.036Z,962.68
2016-08-22T04:19:46.039Z,962.7
2016-08-22T04:20:46.022Z,962.64
2016-08-22T04:21:46.023Z,962.62
2016-08-22T04:22:46.014Z,962.64
2016-08-22T04:23:46.014Z,962.63
2016-08-22T04:24:46.000Z,962.63
2016-08-22T04:25:46.004Z,962.64
2016-08-22T04:26:45.993Z,962.66
2016-08-22T04:27:46.001Z,962.64
2016-08-22T04:28:45.991Z,962.67
2016-08-22T04:29:45.976Z,962.64
2016-08-22T04:30:45.972Z,962.65
2016-08-22T04:31:45.964Z,962.66
2016-08-22T04:32:45.963Z,962.67
2016-08-22T04:33:45.981Z,962.63
2016-08-22T04:34:45.950Z,962.66
2016-08-22T04:35:45.948Z,962.67
2016-08-22T04:36:45.949Z,962.69
2016-08-22T04:37:45.934Z,962.68
2016-08-22T04:38:45.929Z,962.69
2016-08-22T04:39:45.924Z,962.75
2016-08-22T04:40:45.921Z,962.79
2016-08-22T04:41:45.914Z,962.81
2016-08-22T04:42:45.922Z,962.84
2016-08-22T04:43:45.913Z,962.84
2016-08-22T04:44:45.912Z,962.83
2016-08-22T04:45:45.898Z,962.84
2016-08-22T04:46:45.900Z,962.91
2016-08-22T04:47:45.895Z,962.92
2016-08-22T04:48:45.891Z,962.92
2016-08-22T04:49:45.883Z,962.93
2016-08-22T04:50:45.874Z,962.98
2016-08-22T04:51:45.869Z,962.98
2016-08-22T04:52:45.870Z,962.99
2016-08-22T04:53:45.865Z,963.02
2016-08-22T04:54:45.860Z,963.02
2016-08-22T04:55:45.860Z,962.99
2016-08-22T04:56:45.856Z,963
2016-08-22T04:57:45.845Z,963.03
2016-08-22T04:58:45.835Z,963.04
2016-08-22T04:59:45.831Z,963.04
2016-08-22T05:00:45.832Z,963.03
2016-08-22T05:01:46.032Z,963.07
2016-08-22T05:02:45.818Z,963.05
2016-08-22T05:03:45.839Z,963.08
2016-08-22T05:04:45.818Z,963.06
2016-08-22T05:05:45.808Z,963.03
2016-08-22T05:06:45.808Z,963.05
2016-08-22T05:07:45.794Z,963.05
2016-08-22T05:08:45.786Z,963.06
2016-08-22T05:09:45.780Z,963.02
2016-08-22T05:10:45.779Z,963.02
2016-08-22T05:11:45.774Z,963.05
2016-08-22T05:12:45.769Z,963.05
2016-08-22T05:13:45.759Z,963.12
2016-08-22T05:14:45.765Z,963.09
2016-08-22T05:15:45.762Z,963.06
2016-08-22T05:16:45.754Z,963.12
2016-08-22T05:17:45.738Z,963.09
2016-08-22T05:18:45.730Z,963.04
2016-08-22T05:19:45.788Z,963.08
2016-08-22T05:20:45.726Z,963.07
2016-08-22T05:21:45.724Z,963.08
2016-08-22T05:22:45.716Z,963.08
2016-08-22T05:23:45.704Z,963.06
2016-08-22T05:24:45.714Z,963.12
2016-08-22T05:25:45.704Z,963.09
2016-08-22T05:26:45.692Z,963.14
2016-08-22T05:27:45.703Z,963.12
2016-08-22T05:28:45.688Z,963.1
2016-08-22T05:29:45.700Z,963.12
2016-08-22T05:30:45.671Z,963.14
2016-08-22T05:31:45.666Z,963.18
2016-08-22T05:32:45.664Z,963.16
2016-08-22T05:33:45.655Z,963.19
2016-08-22T05:34:45.658Z,963.21
2016-08-22T05:35:45.651Z,963.25
2016-08-22T05:36:45.652Z,963.21
2016-08-22T05:37:45.643Z,963.27
2016-08-22T05:38:45.638Z,963.25
2016-08-22T05:39:45.637Z,963.25
2016-08-22T05:40:45.634Z,963.31
2016-08-22T05:41:45.627Z,963.31
2016-08-22T05:42:45.614Z,963.33
2016-08-22T05:43:45.609Z,963.35
2016-08-22T05:44:45.612Z,963.37
2016-08-22T05:45:45.610Z,963.36
2016-08-22T05:46:45.602Z,963.37
2016-08-22T05:47:45.610Z,963.35
2016-08-22T05:48:45.593Z,963.36
2016-08-22T05:49:45.587Z,963.38
2016-08-22T05:50:45.589Z,963.38
2016-08-22T05:51:45.580Z,963.39
2016-08-22T05:52:45.564Z,963.41
2016-08-22T05:53:45.571Z,963.41
2016-08-22T05:54:45.562Z,963.45
2016-08-22T05:55:45.555Z,963.49
2016-08-22T05:56:45.550Z,963.52
2016-08-22T05:57:45.544Z,963.48
2016-08-22T05:58:45.540Z,963.51
2016-08-22T05:59:45.546Z,963.47
2016-08-22T06:00:45.545Z,963.52
2016-08-22T06:01:45.539Z,963.53
2016-08-22T06:02:45.533Z,963.52
2016-08-22T06:03:45.513Z,963.53
2016-08-22T06:04:45.509Z,963.5
2016-08-22T06:05:45.503Z,963.53
2016-08-22T06:06:45.500Z,963.52
2016-08-22T06:07:45.499Z,963.54
2016-08-22T06:08:45.495Z,963.52
2016-08-22T06:09:45.490Z,963.5
2016-08-22T06:10:45.488Z,963.56
2016-08-22T06:11:45.491Z,963.52
2016-08-22T06:12:45.482Z,963.58
2016-08-22T06:13:45.485Z,963.59
2016-08-22T06:14:45.471Z,963.6
2016-08-22T06:15:45.459Z,963.65
2016-08-22T06:16:45.466Z,963.6
2016-08-22T06:17:45.458Z,963.64
2016-08-22T06:18:45.455Z,963.63
2016-08-22T06:19:45.449Z,963.62
2016-08-22T06:20:45.456Z,963.63
2016-08-22T06:21:45.438Z,963.64
2016-08-22T06:22:45.437Z,963.65
2016-08-22T06:23:45.435Z,963.62
2016-08-22T06:24:45.418Z,963.63
2016-08-22T06:25:45.423Z,963.7
2016-08-22T06:26:45.420Z,963.67
2016-08-22T06:27:45.411Z,963.67
2016-08-22T06:28:45.407Z,963.69
2016-08-22T06:29:45.398Z,963.67
2016-08-22T06:30:45.404Z,963.67
2016-08-22T06:31:45.392Z,963.66
2016-08-22T06:32:45.389Z,963.71
2016-08-22T06:33:45.390Z,963.7
2016-08-22T06:34:45.389Z,963.69
2016-08-22T06:35:45.384Z,963.71
2016-08-22T06:36:45.384Z,963.71
2016-08-22T06:37:45.380Z,963.7
2016-08-22T06:38:45.367Z,963.72
2016-08-22T06:39:45.355Z,963.76
2016-08-22T06:40:45.357Z,963.75
2016-08-22T06:41:45.359Z,963.71
2016-08-22T06:42:45.349Z,963.72
2016-08-22T06:43:45.339Z,963.73
2016-08-22T06:44:45.340Z,963.7
2016-08-22T06:45:45.338Z,963.71
2016-08-22T06:46:45.328Z,963.68
2016-08-22T06:47:45.326Z,963.71
2016-08-22T06:48:45.323Z,963.75
2016-08-22T06:49:45.329Z,963.76
2016-08-22T06:50:45.315Z,963.8
2016-08-22T06:51:45.315Z,963.8
2016-08-22T06:52:45.318Z,963.83
2016-08-22T06:53:45.304Z,963.82
2016-08-22T06:54:45.301Z,963.88
2016-08-22T06:55:45.298Z,963.89
2016-08-22T06:56:45.303Z,963.87
2016-08-22T06:57:45.285Z,963.86
2016-08-22T06:58:45.296Z,963.82
2016-08-22T06:59:45.286Z,963.81
2016-08-22T07:00:45.277Z,963.81
2016-08-22T07:01:45.283Z,963.8
2016-08-22T07:02:45.270Z,963.83
2016-08-22T07:03:45.265Z,963.85
2016-08-22T07:04:45.263Z,963.87
2016-08-22T07:05:45.260Z,963.86
2016-08-22T07:06:45.264Z,963.87
2016-08-22T07:07:45.246Z,963.86
2016-08-22T07:08:45.243Z,963.87
2016-08-22T07:09:45.247Z,963.87
2016-08-22T07:10:45.246Z,963.86
2016-08-22T07:11:45.238Z,963.89
2016-08-22T07:12:45.237Z,963.89
2016-08-22T07:13:45.241Z,963.92
2016-08-22T07:14:45.234Z,963.92
2016-08-22T07:15:45.220Z,963.88
2016-08-22T07:16:45.218Z,963.88
2016-08-22T07:17:45.214Z,963.9
2016-08-22T07:18:45.206Z,963.91
2016-08-22T07:19:45.206Z,963.88
2016-08-22T07:20:45.208Z,963.91
2016-08-22T07:21:45.197Z,963.88
2016-08-22T07:22:45.193Z,963.93
2016-08-22T07:23:45.225Z,963.95
2016-08-22T07:24:45.189Z,963.91
2016-08-22T07:25:45.188Z,963.87
2016-08-22T07:26:45.181Z,963.91
2016-08-22T07:27:45.300Z,963.87
2016-08-22T07:28:45.171Z,963.88
2016-08-22T07:29:45.171Z,963.89
2016-08-22T07:30:45.170Z,963.89
2016-08-22T07:31:45.172Z,963.9
2016-08-22T07:32:45.167Z,963.93
2016-08-22T07:33:45.180Z,963.91
2016-08-22T07:34:45.155Z,963.94
2016-08-22T07:35:45.152Z,963.92
2016-08-22T07:36:45.145Z,963.95
2016-08-22T07:37:45.148Z,963.94
2016-08-22T07:38:45.154Z,963.96
2016-08-22T07:39:45.148Z,963.96
2016-08-22T07:40:45.137Z,963.98
2016-08-22T07:41:45.143Z,964.01
2016-08-22T07:42:45.141Z,964.05
2016-08-22T07:43:45.133Z,964.07
2016-08-22T07:44:45.125Z,964.04
2016-08-22T07:45:45.127Z,964.02
2016-08-22T07:46:45.130Z,964.02
2016-08-22T07:47:45.117Z,964.03
2016-08-22T07:48:45.117Z,964.01
2016-08-22T07:49:45.122Z,963.97
2016-08-22T07:50:45.124Z,963.96
2016-08-22T07:51:45.107Z,963.99
2016-08-22T07:52:45.115Z,964.02
2016-08-22T07:53:45.117Z,964.01
2016-08-22T07:54:45.116Z,964
2016-08-22T07:55:45.098Z,964.01
2016-08-22T07:56:45.096Z,964.03
2016-08-22T07:57:45.091Z,964
2016-08-22T07:58:45.088Z,964.08
2016-08-22T07:59:45.086Z,964.06
2016-08-22T08:00:45.087Z,964.03
2016-08-22T08:01:45.083Z,964.09
2016-08-22T08:02:45.075Z,964.09
2016-08-22T08:03:45.098Z,964.05
2016-08-22T08:04:45.071Z,964.05
2016-08-22T08:05:45.069Z,964.03
2016-08-22T08:06:45.065Z,964.09
2016-08-22T08:07:45.061Z,964.04
2016-08-22T08:08:45.064Z,964.01
2016-08-22T08:09:45.056Z,964.03
2016-08-22T08:10:45.054Z,964.04
2016-08-22T08:11:45.052Z,964.05
2016-08-22T08:12:45.050Z,964.1
2016-08-22T08:13:45.069Z,964.11
2016-08-22T08:14:45.045Z,964.11
2016-08-22T08:15:45.041Z,964.1
2016-08-22T08:16:45.044Z,964.08
2016-08-22T08:17:45.038Z,964.17
2016-08-22T08:18:45.041Z,964.13
2016-08-22T08:19:45.037Z,964.13
2016-08-22T08:20:45.032Z,964.18
2016-08-22T08:21:45.027Z,964.21
2016-08-22T08:22:45.027Z,964.22
2016-08-22T08:23:45.024Z,964.26
2016-08-22T08:24:45.031Z,964.31
2016-08-22T08:25:45.026Z,964.28
2016-08-22T08:26:45.015Z,964.26
2016-08-22T08:27:45.014Z,964.32
2016-08-22T08:28:45.011Z,964.31
2016-08-22T08:29:45.010Z,964.32
2016-08-22T08:30:45.006Z,964.32
2016-08-22T08:31:45.008Z,964.35
2016-08-22T08:32:45.004Z,964.36
2016-08-22T08:33:45.009Z,964.35
2016-08-22T08:34:45.006Z,964.39
2016-08-22T08:35:45.013Z,964.4
2016-08-22T08:36:45.005Z,964.42
2016-08-22T08:37:44.994Z,964.44
2016-08-22T08:38:44.994Z,964.44
2016-08-22T08:39:45.002Z,964.45
2016-08-22T08:40:44.988Z,964.5
2016-08-22T08:41:44.988Z,964.49
2016-08-22T08:42:44.978Z,964.49
2016-08-22T08:43:44.979Z,964.51
2016-08-22T08:44:44.987Z,964.51
2016-08-22T08:45:44.996Z,964.5
2016-08-22T08:46:44.989Z,964.56
2016-08-22T08:47:44.972Z,964.48
2016-08-22T08:48:44.956Z,964.49
2016-08-22T08:49:44.959Z,964.56
2016-08-22T08:50:44.953Z,964.51
2016-08-22T08:51:44.956Z,964.52
2016-08-22T08:52:44.948Z,964.5
2016-08-22T08:53:44.951Z,964.52
2016-08-22T08:54:44.957Z,964.55
2016-08-22T08:55:44.952Z,964.5
2016-08-22T08:56:44.962Z,964.56
2016-08-22T08:57:44.947Z,964.56
2016-08-22T08:58:44.946Z,964.48
2016-08-22T08:59:44.947Z,964.52
2016-08-22T09:00:44.933Z,964.5
2016-08-22T09:01:44.929Z,964.46
2016-08-22T09:02:44.927Z,964.54
2016-08-22T09:03:44.922Z,964.51
2016-08-22T09:04:44.931Z,964.5
2016-08-22T09:05:44.934Z,964.48
2016-08-22T09:06:44.927Z,964.45
2016-08-22T09:07:44.917Z,964.48
2016-08-22T09:08:44.917Z,964.51
2016-08-22T09:09:44.923Z,964.52
2016-08-22T09:10:44.910Z,964.54
2016-08-22T09:11:44.908Z,964.49
2016-08-22T09:12:44.916Z,964.5
2016-08-22T09:13:44.911Z,964.48
2016-08-22T09:14:44.907Z,964.53
2016-08-22T09:15:44.900Z,964.5
2016-08-22T09:16:44.904Z,964.47
2016-08-22T09:17:44.903Z,964.49
2016-08-22T09:18:44.897Z,964.54
2016-08-22T09:19:44.902Z,964.59
2016-08-22T09:20:44.886Z,964.53
2016-08-22T09:21:44.891Z,964.51
2016-08-22T09:22:44.889Z,964.5
2016-08-22T09:23:44.888Z,964.53
2016-08-22T09:24:44.882Z,964.5
2016-08-22T09:25:44.881Z,964.49
2016-08-22T09:26:44.874Z,964.52
2016-08-22T09:27:44.898Z,964.5
2016-08-22T09:28:44.873Z,964.52
2016-08-22T09:29:44.872Z,964.52
2016-08-22T09:30:44.871Z,964.53
2016-08-22T09:31:44.870Z,964.53
2016-08-22T09:32:44.873Z,964.51
2016-08-22T09:33:44.879Z,964.48
2016-08-22T09:34:44.870Z,964.49
2016-08-22T09:35:44.874Z,964.45
2016-08-22T09:36:44.874Z,964.44
2016-08-22T09:37:44.867Z,964.47
2016-08-22T09:38:44.858Z,964.44
2016-08-22T09:39:44.860Z,964.45
2016-08-22T09:40:44.875Z,964.47
2016-08-22T09:41:44.855Z,964.47
2016-08-22T09:42:44.857Z,964.48
2016-08-22T09:43:44.851Z,964.51
2016-08-22T09:44:44.857Z,964.52
2016-08-22T09:45:44.855Z,964.54
2016-08-22T09:46:44.846Z,964.5
2016-08-22T09:47:44.847Z,964.5
2016-08-22T09:48:44.858Z,964.49
2016-08-22T09:49:44.859Z,964.5
2016-08-22T09:50:44.862Z,964.49
2016-08-22T09:51:44.861Z,964.5
2016-08-22T09:52:44.879Z,964.46
2016-08-22T09:53:44.849Z,964.48
2016-08-22T09:54:44.846Z,964.51
2016-08-22T09:55:44.837Z,964.51
2016-08-22T09:56:44.834Z,964.51
2016-08-22T09:57:44.930Z,964.48
2016-08-22T09:58:44.852Z,964.52
2016-08-22T09:59:44.831Z,964.51
2016-08-22T10:00:44.836Z,964.49
2016-08-22T10:01:44.824Z,964.53
2016-08-22T10:02:44.823Z,964.53
2016-08-22T10:03:44.828Z,964.51
2016-08-22T10:04:44.820Z,964.52
2016-08-22T10:05:44.817Z,964.49
2016-08-22T10:06:44.815Z,964.5
2016-08-22T10:07:44.814Z,964.46
2016-08-22T10:08:44.832Z,964.42
2016-08-22T10:09:44.878Z,964.46
2016-08-22T10:10:44.822Z,964.46
2016-08-22T10:11:44.808Z,964.42
2016-08-22T10:12:44.823Z,964.45
2016-08-22T10:13:44.809Z,964.46
2016-08-22T10:14:44.806Z,964.46
2016-08-22T10:15:44.803Z,964.43
2016-08-22T10:16:44.809Z,964.41
2016-08-22T10:17:44.814Z,964.44
2016-08-22T10:18:44.798Z,964.47
2016-08-22T10:19:44.797Z,964.41
2016-08-22T10:20:44.796Z,964.49
2016-08-22T10:21:44.795Z,964.49
2016-08-22T10:22:44.794Z,964.49
2016-08-22T10:23:44.807Z,964.49
2016-08-22T10:24:44.806Z,964.43
2016-08-22T10:25:44.802Z,964.45
2016-08-22T10:26:44.789Z,964.47
2016-08-22T10:27:44.796Z,964.47
2016-08-22T10:28:44.826Z,964.48
2016-08-22T10:29:44.793Z,964.46
2016-08-22T10:30:44.780Z,964.49
2016-08-22T10:31:44.779Z,964.51
2016-08-22T10:32:44.778Z,964.53
2016-08-22T10:33:44.791Z,964.49
2016-08-22T10:34:44.782Z,964.52
2016-08-22T10:35:44.773Z,964.54
2016-08-22T10:36:44.788Z,964.59
2016-08-22T10:37:44.799Z,964.52
2016-08-22T10:38:44.785Z,964.56
2016-08-22T10:39:44.779Z,964.6
2016-08-22T10:40:44.771Z,964.5
2016-08-22T10:41:44.762Z,964.45
2016-08-22T10:42:44.758Z,964.52
2016-08-22T10:43:44.761Z,964.53
2016-08-22T10:44:44.767Z,964.47
2016-08-22T10:45:44.759Z,964.51
2016-08-22T10:46:44.757Z,964.47
2016-08-22T10:47:44.769Z,964.43
2016-08-22T10:48:44.755Z,964.42
2016-08-22T10:49:44.779Z,964.4
2016-08-22T10:50:44.755Z,964.4
2016-08-22T10:51:44.744Z,964.41
2016-08-22T10:52:44.746Z,964.39
2016-08-22T10:53:44.747Z,964.38
2016-08-22T10:54:44.740Z,964.35
2016-08-22T10:55:44.737Z,964.45
2016-08-22T10:56:44.764Z,964.44
2016-08-22T10:57:44.757Z,964.46
2016-08-22T10:58:44.748Z,964.45
2016-08-22T10:59:44.739Z,964.44
2016-08-22T11:00:44.751Z,964.45
2016-08-22T11:01:44.749Z,964.39
2016-08-22T11:02:44.748Z,964.35
2016-08-22T11:03:44.737Z,964.4
2016-08-22T11:04:44.739Z,964.41
2016-08-22T11:05:44.725Z,964.43
2016-08-22T11:06:44.720Z,964.42
2016-08-22T11:07:44.725Z,964.42
2016-08-22T11:08:44.736Z,964.41
2016-08-22T11:09:44.737Z,964.4
2016-08-22T11:10:44.736Z,964.36
2016-08-22T11:11:44.727Z,964.36
2016-08-22T11:12:44.740Z,964.34
2016-08-22T11:13:44.723Z,964.38
2016-08-22T11:14:44.746Z,964.39
2016-08-22T11:15:44.724Z,964.43
2016-08-22T11:16:44.710Z,964.49
2016-08-22T11:17:44.720Z,964.49
2016-08-22T11:18:44.718Z,964.51
2016-08-22T11:19:44.717Z,964.48
2016-08-22T11:20:44.705Z,964.43
2016-08-22T11:21:44.714Z,964.45
2016-08-22T11:22:44.718Z,964.4
2016-08-22T11:23:44.706Z,964.37
2016-08-22T11:24:44.720Z,964.32
2016-08-22T11:25:44.719Z,964.36
2016-08-22T11:26:44.711Z,964.37
2016-08-22T11:27:44.717Z,964.29
2016-08-22T11:28:44.708Z,964.31
2016-08-22T11:29:44.709Z,964.31
2016-08-22T11:30:44.708Z,964.3
2016-08-22T11:31:44.710Z,964.29
2016-08-22T11:32:44.697Z,964.3
2016-08-22T11:33:44.703Z,964.28
2016-08-22T11:34:44.706Z,964.23
2016-08-22T11:35:44.707Z,964.2
2016-08-22T11:36:44.702Z,964.24
2016-08-22T11:37:44.696Z,964.2
2016-08-22T11:38:44.692Z,964.2
2016-08-22T11:39:44.717Z,964.17
2016-08-22T11:40:44.701Z,964.16
2016-08-22T11:41:44.687Z,964.17
2016-08-22T11:42:44.738Z,964.13
2016-08-22T11:43:44.692Z,964.2
2016-08-22T11:44:44.687Z,964.14
2016-08-22T11:45:44.694Z,964.22
2016-08-22T11:46:44.684Z,964.22
2016-08-22T11:47:44.681Z,964.18
2016-08-22T11:48:44.695Z,964.14
2016-08-22T11:49:44.690Z,964.16
2016-08-22T11:50:44.687Z,964.15
2016-08-22T11:51:44.692Z,964.21
2016-08-22T11:52:44.684Z,964.23
2016-08-22T11:53:44.699Z,964.25
2016-08-22T11:54:44.686Z,964.29
2016-08-22T11:55:44.677Z,964.27
2016-08-22T11:56:44.683Z,964.29
2016-08-22T11:57:44.682Z,964.29
2016-08-22T11:58:44.676Z,964.28
2016-08-22T11:59:44.686Z,964.33
2016-08-22T12:00:44.677Z,964.35
2016-08-22T12:01:44.676Z,964.35
2016-08-22T12:02:44.684Z,964.34
2016-08-22T12:03:44.686Z,964.33
2016-08-22T12:04:44.690Z,964.32
2016-08-22T12:05:44.686Z,964.31
2016-08-22T12:06:44.680Z,964.28
2016-08-22T12:07:44.672Z,964.23
2016-08-22T12:08:44.676Z,964.26
2016-08-22T12:09:44.676Z,964.25
2016-08-22T12:10:44.664Z,964.27
2016-08-22T12:11:44.667Z,964.23
2016-08-22T12:12:44.675Z,964.26
2016-08-22T12:13:44.677Z,964.25
2016-08-22T12:14:44.664Z,964.25
2016-08-22T12:15:44.658Z,964.22
2016-08-22T12:16:44.658Z,964.23
2016-08-22T12:17:44.670Z,964.29
2016-08-22T12:18:44.669Z,964.31
2016-08-22T12:19:44.655Z,964.3
2016-08-22T12:20:44.676Z,964.34
2016-08-22T12:21:44.654Z,964.3
2016-08-22T12:22:44.646Z,964.3
2016-08-22T12:23:44.659Z,964.3
2016-08-22T12:24:44.677Z,964.32
2016-08-22T12:25:44.664Z,964.33
2016-08-22T12:26:44.671Z,964.32
2016-08-22T12:27:44.653Z,964.37
2016-08-22T12:28:44.648Z,964.27
2016-08-22T12:29:44.646Z,964.31
2016-08-22T12:30:44.663Z,964.35
2016-08-22T12:31:44.669Z,964.36